Terminal Aerodrome Forecast
Issued by NWS Tallahassee, FL

Home | Current Version | Previous Version | Text Only | Print | Product List | Glossary On
Versions: 1 2 3 4 5 6 7 8 9 10 11 12 13
453
FTUS42 KTAE 260535
TAFTLH
TAF
KTLH 260535Z 2606/2706 00000KT P6SM SCT250
     FM261300 13006KT P6SM SCT070 SCT250
     FM270100 00000KT P6SM SCT250=

USA.gov is the U.S. government's official web portal to all federal, state and local government web resources and services.